Terminal Aerodrome Forecast
Issued by NWS Jackson, MS

Home | Current Version | Previous Version | Text Only | Print | Product List | Glossary On
Versions: 1 2 3 4 5 6 7 8 9 10 11 12 13 14 15 16 17 18 19 20 21 22 23 24 25 26 27 28 29 30 31 32
000
FTUS44 KMEG 181526 AAA
TAFTUP
TAF AMD
KTUP 181526Z 1815/1912 18015G22KT P6SM VCSH BKN040
     FM182100 19014G22KT 3SM -TSRA OVC025CB
     FM190200 28014G20KT P6SM VCSH OVC007
     FM190600 35012G22KT P6SM OVC007=

USA.gov is the U.S. government's official web portal to all federal, state and local government web resources and services.